Time;durP1;ratioP1;P1;durP2;ratioP2;P2;SDS_P1;SDS_P2;PMS_P1;PMS_P2;Temp;Humidity;BMP_temperature;BMP_pressure;BME280_temperature;BME280_humidity;BME280_pressure;Samples;Min_cycle;Max_cycle;Signal;HPM_P1;HPM_P2
2022/06/15 00:00:34;;;;;;;;;9.75;8.00;;;;;-143.57;100.00;65101.44;5100284;27;45479;-52
2022/06/15 00:03:00;;;;;;;;;8.50;8.50;;;;;-143.57;100.00;65101.44;5100476;27;45388;-55
2022/06/15 00:05:25;;;;;;;;;6.75;6.75;;;;;-143.57;100.00;65101.44;5100728;27;45353;-50
2022/06/15 00:07:52;;;;;;;;;7.75;7.75;;;;;-143.57;100.00;65101.44;5100758;27;45346;-53
2022/06/15 00:10:18;;;;;;;;;8.00;8.00;;;;;-143.57;100.00;65101.44;5099693;27;45426;-57
2022/06/15 00:12:44;;;;;;;;;8.75;7.00;;;;;-143.57;100.00;65101.44;5100427;27;45249;-49
2022/06/15 00:15:09;;;;;;;;;10.50;7.75;;;;;-143.57;100.00;65101.44;5100468;27;45571;-54
2022/06/15 00:17:35;;;;;;;;;6.50;6.50;;;;;-143.57;100.00;65101.44;5099970;27;45507;-45
2022/06/15 00:20:01;;;;;;;;;7.00;7.00;;;;;-143.57;100.00;65101.44;5100744;27;46500;-53
2022/06/15 00:22:26;;;;;;;;;9.50;6.00;;;;;-143.57;100.00;65101.44;5100243;27;45208;-43
2022/06/15 00:24:51;;;;;;;;;7.00;7.00;;;;;-143.57;100.00;65101.44;5100496;27;45399;-47
2022/06/15 00:27:17;;;;;;;;;5.75;5.75;;;;;-143.57;100.00;65101.44;5100270;27;45356;-45
2022/06/15 00:29:42;;;;;;;;;7.75;6.75;;;;;-143.57;100.00;65101.44;5099625;27;46295;-43
2022/06/15 00:32:08;;;;;;;;;7.00;6.00;;;;;-143.57;100.00;65101.44;5100099;27;45235;-43
2022/06/15 00:34:33;;;;;;;;;7.00;7.00;;;;;-143.57;100.00;65101.44;5100137;27;45276;-47
2022/06/15 00:36:59;;;;;;;;;7.00;7.00;;;;;-143.57;100.00;65101.44;5100240;27;45351;-44
2022/06/15 00:39:25;;;;;;;;;9.00;6.67;;;;;-143.57;100.00;65101.44;5099690;27;46058;-45
2022/06/15 00:41:50;;;;;;;;;9.00;7.00;;;;;-143.57;100.00;65101.44;5099575;27;45355;-46
2022/06/15 00:44:18;;;;;;;;;6.00;5.67;;;;;-143.57;100.00;65101.44;5099957;27;45370;-44
2022/06/15 00:46:46;;;;;;;;;8.33;7.33;;;;;-143.57;100.00;65101.44;5099733;27;45473;-46
2022/06/15 00:49:20;;;;;;;;;6.00;6.00;;;;;-143.57;100.00;65101.44;5099634;27;46338;-52
2022/06/15 00:51:49;;;;;;;;;8.00;7.67;;;;;-143.57;100.00;65101.44;5099513;27;45334;-44
2022/06/15 00:54:16;;;;;;;;;7.00;7.00;;;;;-143.57;100.00;65101.44;5099603;27;45415;-44
2022/06/15 00:56:43;;;;;;;;;7.00;7.00;;;;;-143.57;100.00;65101.44;5099856;27;45319;-53
2022/06/15 00:59:15;;;;;;;;;5.33;5.33;;;;;-143.57;100.00;65101.44;5099328;27;46399;-55
2022/06/15 01:01:41;;;;;;;;;7.00;7.00;;;;;-143.57;100.00;65101.44;5099785;27;45449;-53
2022/06/15 01:04:06;;;;;;;;;7.00;6.33;;;;;-143.57;100.00;65101.44;5100197;27;45328;-48
2022/06/15 01:06:42;;;;;;;;;8.67;8.00;;;;;-143.57;100.00;65101.44;5099911;27;45620;-55
2022/06/15 01:09:26;;;;;;;;;7.33;6.00;;;;;-143.57;100.00;65101.44;5099224;27;47050;-45
2022/06/15 01:12:26;;;;;;;;;6.00;5.00;;;;;-143.57;100.00;65101.44;5099433;27;45326;-49
2022/06/15 01:15:03;;;;;;;;;7.67;6.33;;;;;-143.57;100.00;65101.44;5016370;28;45494;-51
2022/06/15 01:17:31;;;;;;;;;5.00;5.00;;;;;-143.57;100.00;65101.44;5016047;28;45598;-52
2022/06/15 01:20:09;;;;;;;;;7.00;7.00;;;;;-143.57;100.00;65101.44;5015884;28;46059;-50
2022/06/15 01:23:14;;;;;;;;;6.33;6.33;;;;;-143.57;100.00;65101.44;5016226;28;45359;-51
2022/06/15 01:25:45;;;;;;;;;8.00;5.75;;;;;-143.57;100.00;65101.44;5016273;28;45415;-55
2022/06/15 01:28:30;;;;;;;;;6.67;6.67;;;;;-143.57;100.00;65101.44;5016353;28;45491;-56
2022/06/15 01:31:14;;;;;;;;;6.33;6.33;;;;;-143.57;100.00;65101.44;5016036;28;45368;-55
2022/06/15 01:34:07;;;;;;;;;6.67;6.33;;;;;-143.57;100.00;65101.44;5015848;28;45395;-44
2022/06/15 01:36:38;;;;;;;;;6.67;6.00;;;;;-143.57;100.00;65101.44;5016270;28;45587;-53
2022/06/15 01:39:15;;;;;;;;;6.00;6.00;;;;;-143.57;100.00;65101.44;5016052;28;45349;-51
2022/06/15 01:41:50;;;;;;;;;9.00;6.00;;;;;-143.57;100.00;65101.44;5014923;28;46399;-53
2022/06/15 01:44:27;;;;;;;;;10.33;8.00;;;;;-143.57;100.00;65101.44;5015765;28;45316;-48
2022/06/15 01:46:55;;;;;;;;;5.67;5.67;;;;;-143.57;100.00;65101.44;5015648;28;45573;-53
2022/06/15 01:49:30;;;;;;;;;8.67;6.00;;;;;-143.57;100.00;65101.44;5016185;28;45281;-55
2022/06/15 01:51:59;;;;;;;;;6.00;6.00;;;;;-143.57;100.00;65101.44;5082264;27;46283;-52
2022/06/15 01:54:36;;;;;;;;;5.00;5.00;;;;;-143.57;100.00;65101.44;5098572;27;45253;-55
2022/06/15 01:57:03;;;;;;;;;6.67;5.67;;;;;-143.57;100.00;65101.44;5098610;27;45420;-44
2022/06/15 01:59:39;;;;;;;;;8.00;7.00;;;;;-143.57;100.00;65101.44;5098694;27;45393;-48
2022/06/15 02:02:15;;;;;;;;;8.00;7.00;;;;;-143.57;100.00;65101.44;5098311;27;46242;-44
2022/06/15 02:04:50;;;;;;;;;7.00;6.33;;;;;-143.57;100.00;65101.44;5098561;27;45260;-47
2022/06/15 02:07:36;;;;;;;;;7.67;6.67;;;;;-143.57;100.00;65101.44;5098457;27;45437;-45
2022/06/15 02:10:26;;;;;;;;;8.00;6.67;;;;;-143.57;100.00;65101.44;5098644;27;45336;-54
2022/06/15 02:13:00;;;;;;;;;7.00;6.00;;;;;-143.57;100.00;65101.44;5097378;27;45270;-46
2022/06/15 02:15:29;;;;;;;;;5.00;5.00;;;;;-143.57;100.00;65101.44;5098159;27;45457;-46
2022/06/15 02:17:58;;;;;;;;;7.67;7.33;;;;;-143.57;100.00;65101.44;5098260;27;45378;-43
2022/06/15 02:20:28;;;;;;;;;8.33;7.00;;;;;-143.57;100.00;65101.44;5097725;27;45247;-51
2022/06/15 02:22:59;;;;;;;;;8.00;7.00;;;;;-143.57;100.00;65101.44;5098051;27;46250;-54
2022/06/15 02:25:30;;;;;;;;;8.00;8.00;;;;;-143.57;100.00;65101.44;5098004;27;45237;-55
2022/06/15 02:27:56;;;;;;;;;8.00;8.00;;;;;-143.57;100.00;65101.44;5098416;27;45340;-45
2022/06/15 02:30:24;;;;;;;;;5.67;4.00;;;;;-143.57;100.00;65101.44;5098272;27;45449;-43
2022/06/15 02:32:51;;;;;;;;;8.00;5.00;;;;;-143.57;100.00;65101.44;5097761;27;46666;-55
2022/06/15 02:35:18;;;;;;;;;6.33;6.33;;;;;-143.57;100.00;65101.44;5097998;27;45327;-51
2022/06/15 02:37:45;;;;;;;;;6.67;6.00;;;;;-143.57;100.00;65101.44;5079188;27;45383;-42
2022/06/15 02:40:17;;;;;;;;;5.00;4.67;;;;;-143.57;100.00;65101.44;5098252;27;45369;-43
2022/06/15 02:42:45;;;;;;;;;7.00;6.33;;;;;-143.57;100.00;65101.44;5097873;27;45337;-54
2022/06/15 02:45:19;;;;;;;;;9.33;5.00;;;;;-143.57;100.00;65101.44;5097767;27;45381;-44
2022/06/15 02:47:45;;;;;;;;;7.33;6.67;;;;;-143.57;100.00;65101.44;5097941;27;45378;-54
2022/06/15 02:50:13;;;;;;;;;5.67;5.00;;;;;-143.57;100.00;65101.44;5098143;27;45394;-48
2022/06/15 02:52:43;;;;;;;;;6.33;6.33;;;;;-143.57;100.00;65101.44;5096735;27;46163;-51
2022/06/15 02:55:10;;;;;;;;;5.67;5.67;;;;;-143.57;100.00;65101.44;5097673;27;45342;-48
2022/06/15 02:57:47;;;;;;;;;5.00;5.00;;;;;-143.57;100.00;65101.44;5097884;27;45449;-50
2022/06/15 03:00:14;;;;;;;;;6.00;6.00;;;;;-143.57;100.00;65101.44;5097632;27;45444;-42
2022/06/15 03:02:39;;;;;;;;;6.67;6.00;;;;;-143.57;100.00;65101.44;5097456;27;47105;-54
2022/06/15 03:05:06;;;;;;;;;7.67;7.00;;;;;-143.57;100.00;65101.44;5097504;27;45229;-54
2022/06/15 03:07:31;;;;;;;;;8.00;6.67;;;;;-143.57;100.00;65101.44;5097738;27;45300;-43
2022/06/15 03:09:56;;;;;;;;;6.33;6.00;;;;;-143.57;100.00;65101.44;5097861;27;45654;-44
2022/06/15 03:12:22;;;;;;;;;9.00;6.00;;;;;-143.57;100.00;65101.44;5097462;27;45279;-55
2022/06/15 03:14:47;;;;;;;;;6.00;5.67;;;;;-143.57;100.00;65101.44;5097547;27;45297;-52
2022/06/15 03:17:12;;;;;;;;;8.00;6.67;;;;;-143.57;100.00;65101.44;5097466;27;45847;-45
2022/06/15 03:19:38;;;;;;;;;5.33;5.33;;;;;-143.57;100.00;65101.44;5097361;27;45449;-47
2022/06/15 03:22:04;;;;;;;;;8.00;6.00;;;;;-143.57;100.00;65101.44;5097487;27;46169;-54
2022/06/15 03:24:29;;;;;;;;;6.00;5.67;;;;;-143.57;100.00;65101.44;5097307;27;45698;-47
2022/06/15 03:26:55;;;;;;;;;6.00;6.00;;;;;-143.57;100.00;65101.44;5097859;27;45364;-45
2022/06/15 03:29:20;;;;;;;;;5.33;5.00;;;;;-143.57;100.00;65101.44;5097629;27;45419;-53
2022/06/15 03:31:45;;;;;;;;;8.00;6.33;;;;;-143.57;100.00;65101.44;5078818;27;47496;-50
2022/06/15 03:34:11;;;;;;;;;7.33;7.33;;;;;-143.57;100.00;65101.44;5097207;27;45370;-43
2022/06/15 03:36:36;;;;;;;;;7.00;7.00;;;;;-143.57;100.00;65101.44;5097348;27;45550;-45
2022/06/15 03:39:02;;;;;;;;;6.00;6.00;;;;;-143.57;100.00;65101.44;5097690;27;45327;-45
2022/06/15 03:41:27;;;;;;;;;5.00;5.00;;;;;-143.57;100.00;65101.44;5097196;27;45815;-55
2022/06/15 03:43:53;;;;;;;;;6.67;5.00;;;;;-143.57;100.00;65101.44;5097129;27;45305;-57
2022/06/15 03:46:18;;;;;;;;;7.00;7.00;;;;;-143.57;100.00;65101.44;5097464;27;45323;-54
2022/06/15 03:48:44;;;;;;;;;7.33;5.00;;;;;-143.57;100.00;65101.44;5097198;27;45409;-51
2022/06/15 03:51:09;;;;;;;;;9.33;7.00;;;;;-143.57;100.00;65101.44;5097092;27;46191;-46
2022/06/15 03:53:34;;;;;;;;;7.33;6.67;;;;;-143.57;100.00;65101.44;5097168;27;45421;-44
2022/06/15 03:56:00;;;;;;;;;7.67;6.00;;;;;-143.57;100.00;65101.44;5096982;27;45922;-45
2022/06/15 03:58:26;;;;;;;;;6.00;6.00;;;;;-143.57;100.00;65101.44;5097501;27;45326;-55
2022/06/15 04:00:51;;;;;;;;;6.00;5.67;;;;;-143.57;100.00;65101.44;5096748;27;46188;-54
2022/06/15 04:03:17;;;;;;;;;9.33;7.00;;;;;-143.57;100.00;65101.44;5096831;27;45234;-44
2022/06/15 04:05:52;;;;;;;;;11.00;6.00;;;;;-143.57;100.00;65101.44;5099696;27;45462;-53
2022/06/15 04:08:39;;;;;;;;;9.00;6.00;;;;;-143.57;100.00;65101.44;5101096;27;45410;-44
2022/06/15 04:11:58;;;;;;;;;7.67;6.00;;;;;-143.57;100.00;65101.44;5100174;27;45509;-55
2022/06/15 04:13:59;;;;;;;;;8.67;6.67;;;;;-143.57;100.00;65101.44;5100118;27;45436;-55
2022/06/15 04:16:25;;;;;;;;;7.00;6.00;;;;;-143.57;100.00;65101.44;5100301;27;45378;-42
2022/06/15 04:18:50;;;;;;;;;6.33;6.33;;;;;-143.57;100.00;65101.44;5100148;27;45545;-44
2022/06/15 04:21:15;;;;;;;;;8.33;7.00;;;;;-143.57;100.00;65101.44;5099786;27;46065;-55
2022/06/15 04:23:41;;;;;;;;;6.67;5.33;;;;;-143.57;100.00;65101.44;5100270;27;45315;-45
2022/06/15 04:26:09;;;;;;;;;8.33;7.00;;;;;-143.57;100.00;65101.44;5100161;27;45415;-46
2022/06/15 04:28:39;;;;;;;;;7.33;5.00;;;;;-143.57;100.00;65101.44;5100553;27;45352;-53
2022/06/15 04:31:05;;;;;;;;;10.00;7.00;;;;;-143.57;100.00;65101.44;5099734;27;46353;-49
2022/06/15 04:33:31;;;;;;;;;8.00;6.00;;;;;-143.57;100.00;65101.44;5099759;27;45252;-44
2022/06/15 04:35:56;;;;;;;;;6.67;6.67;;;;;-143.57;100.00;65101.44;5100191;27;45275;-45
2022/06/15 04:38:22;;;;;;;;;8.00;8.00;;;;;-143.57;100.00;65101.44;5100332;27;45437;-50
2022/06/15 04:40:48;;;;;;;;;5.33;5.33;;;;;-143.57;100.00;65101.44;5099892;27;45433;-45
2022/06/15 04:43:13;;;;;;;;;5.00;5.00;;;;;-143.57;100.00;65101.44;5100153;27;45405;-51
2022/06/15 04:45:39;;;;;;;;;8.00;6.00;;;;;-143.57;100.00;65101.44;5099932;27;45314;-48
2022/06/15 04:48:04;;;;;;;;;7.67;7.00;;;;;-143.57;100.00;65101.44;5100060;27;45457;-51
2022/06/15 04:50:30;;;;;;;;;2.67;2.67;;;;;-143.57;100.00;65101.44;5099486;27;47027;-47
2022/06/15 04:52:57;;;;;;;;;7.33;6.33;;;;;-143.57;100.00;65101.44;5098867;27;45387;-50
2022/06/15 04:55:25;;;;;;;;;8.33;7.00;;;;;-143.57;100.00;65101.44;5099861;27;45432;-52
2022/06/15 04:57:54;;;;;;;;;9.00;7.00;;;;;-143.57;100.00;65101.44;5099808;27;45398;-44
2022/06/15 05:00:22;;;;;;;;;8.00;6.00;;;;;-143.57;100.00;65101.44;5099640;27;47102;-44
2022/06/15 05:02:47;;;;;;;;;9.00;7.00;;;;;-143.57;100.00;65101.44;5099426;27;45964;-44
2022/06/15 05:05:13;;;;;;;;;10.00;8.00;;;;;-143.57;100.00;65101.44;5099433;27;45430;-56
2022/06/15 05:07:40;;;;;;;;;8.00;8.00;;;;;-143.57;100.00;65101.44;5081290;27;45492;-53
2022/06/15 05:10:07;;;;;;;;;5.33;5.00;;;;;-143.57;100.00;65101.44;5098688;27;45393;-49
2022/06/15 05:12:32;;;;;;;;;9.00;7.67;;;;;-143.57;100.00;65101.44;5099453;27;45361;-50
2022/06/15 05:14:58;;;;;;;;;8.67;8.67;;;;;-143.57;100.00;65101.44;5098523;27;45409;-54
2022/06/15 05:17:24;;;;;;;;;6.00;6.00;;;;;-143.57;100.00;65101.44;5080079;27;45486;-57
2022/06/15 05:19:50;;;;;;;;;9.00;7.00;;;;;-143.57;100.00;65101.44;5114543;27;45512;-55
2022/06/15 05:22:15;;;;;;;;;8.25;7.25;;;;;-143.57;100.00;65101.44;5099085;27;45295;-54
2022/06/15 05:24:41;;;;;;;;;9.50;6.50;;;;;-143.57;100.00;65101.44;5099395;27;45564;-46
2022/06/15 05:27:06;;;;;;;;;9.00;7.00;;;;;-143.57;100.00;65101.44;5099342;27;45454;-49
2022/06/15 05:29:35;;;;;;;;;8.00;8.00;;;;;-143.57;100.00;65101.44;5098921;27;47180;-45
2022/06/15 05:32:01;;;;;;;;;6.00;6.00;;;;;-143.57;100.00;65101.44;5099241;27;45323;-44
2022/06/15 05:34:26;;;;;;;;;8.00;8.00;;;;;-143.57;100.00;65101.44;5099047;27;45428;-44
2022/06/15 05:36:52;;;;;;;;;6.00;6.00;;;;;-143.57;100.00;65101.44;5099261;27;45445;-45
2022/06/15 05:39:17;;;;;;;;;14.67;9.00;;;;;-143.57;100.00;65101.44;5098955;27;45513;-45
2022/06/15 05:41:43;;;;;;;;;11.67;8.67;;;;;-143.57;100.00;65101.44;5114665;27;45514;-43
2022/06/15 05:46:58;;;;;;;;;9.33;7.33;;;;;-143.57;100.00;65101.44;5099059;27;45410;-42
2022/06/15 05:49:24;;;;;;;;;8.00;8.00;;;;;-143.57;100.00;65101.44;5098600;27;46427;-43
2022/06/15 05:51:50;;;;;;;;;8.75;7.75;;;;;-143.57;100.00;65101.44;5098675;27;45354;-43
2022/06/15 05:54:15;;;;;;;;;9.00;9.00;;;;;-143.57;100.00;65101.44;5098946;27;45365;-43
2022/06/15 05:56:41;;;;;;;;;10.50;8.75;;;;;-143.57;100.00;65101.44;5099078;27;45406;-44
2022/06/15 05:59:06;;;;;;;;;9.00;9.00;;;;;-143.57;100.00;65101.44;5098549;27;47192;-43
2022/06/15 06:01:34;;;;;;;;;8.00;8.00;;;;;-143.57;100.00;65101.44;5098565;27;45316;-43
2022/06/15 06:04:00;;;;;;;;;12.33;7.67;;;;;-143.57;100.00;65101.44;5098611;27;45220;-45
2022/06/15 06:06:26;;;;;;;;;11.00;8.00;;;;;-143.57;100.00;65101.44;5098786;27;45443;-44
2022/06/15 06:08:53;;;;;;;;;11.00;9.25;;;;;-143.57;100.00;65101.44;5098368;27;45463;-44
2022/06/15 06:11:19;;;;;;;;;10.00;9.00;;;;;-143.57;100.00;65101.44;5098049;27;45200;-43
2022/06/15 06:13:44;;;;;;;;;11.75;7.50;;;;;-143.57;100.00;65101.44;5098703;27;45448;-46
2022/06/15 06:16:10;;;;;;;;;9.50;8.00;;;;;-143.57;100.00;65101.44;5098718;27;45413;-47
2022/06/15 06:18:35;;;;;;;;;7.00;7.00;;;;;-143.57;100.00;65101.44;5098382;27;45428;-44
2022/06/15 06:21:01;;;;;;;;;9.00;7.50;;;;;-143.57;100.00;65101.44;5097826;27;45346;-44
2022/06/15 06:23:26;;;;;;;;;10.25;8.25;;;;;-143.57;100.00;65101.44;5098220;27;45355;-49
2022/06/15 06:25:53;;;;;;;;;9.25;7.50;;;;;-143.57;100.00;65101.44;5098397;27;45394;-44
2022/06/15 06:28:25;;;;;;;;;8.00;8.00;;;;;-143.57;100.00;65101.44;5097865;27;46238;-43
2022/06/15 06:30:50;;;;;;;;;11.00;9.33;;;;;-143.57;100.00;65101.44;5098100;27;45414;-42
2022/06/15 06:33:15;;;;;;;;;8.25;8.25;;;;;-143.57;100.00;65101.44;5098200;27;45321;-45
2022/06/15 06:35:41;;;;;;;;;10.50;9.50;;;;;-143.57;100.00;65101.44;5098132;27;45428;-48
2022/06/15 06:38:07;;;;;;;;;12.50;9.75;;;;;-143.57;100.00;65101.44;5098053;27;46368;-43
2022/06/15 06:40:32;;;;;;;;;8.75;8.00;;;;;-143.57;100.00;65101.44;5097839;27;45501;-43
2022/06/15 06:42:58;;;;;;;;;11.50;7.75;;;;;-143.57;100.00;65101.44;5098377;27;45248;-51
2022/06/15 06:45:23;;;;;;;;;9.25;7.00;;;;;-143.57;100.00;65101.44;5098100;27;45359;-52
2022/06/15 06:47:48;;;;;;;;;8.00;7.75;;;;;-143.57;100.00;65101.44;5097770;27;46124;-49
2022/06/15 06:50:14;;;;;;;;;10.00;7.50;;;;;-143.57;100.00;65101.44;5097968;27;45291;-45
2022/06/15 06:52:39;;;;;;;;;6.50;6.50;;;;;-143.57;100.00;65101.44;5097931;27;45295;-44
2022/06/15 06:55:05;;;;;;;;;9.25;8.00;;;;;-143.57;100.00;65101.44;5098225;27;45553;-47
2022/06/15 06:57:31;;;;;;;;;9.75;8.00;;;;;-143.57;100.00;65101.44;5097699;27;46212;-44
2022/06/15 06:59:56;;;;;;;;;7.75;7.00;;;;;-143.57;100.00;65101.44;5097704;27;45398;-46
2022/06/15 07:02:21;;;;;;;;;10.75;7.75;;;;;-143.57;100.00;65101.44;5097867;27;45212;-48
2022/06/15 07:04:47;;;;;;;;;8.75;7.25;;;;;-143.57;100.00;65101.44;5097923;27;45262;-47
2022/06/15 07:07:12;;;;;;;;;7.25;7.25;;;;;-143.57;100.00;65101.44;5097513;27;45963;-45
2022/06/15 07:09:38;;;;;;;;;8.75;5.50;;;;;-143.57;100.00;65101.44;5097920;27;45220;-44
2022/06/15 07:12:04;;;;;;;;;7.00;7.00;;;;;-143.57;100.00;65101.44;5097786;27;45311;-46
2022/06/15 07:14:30;;;;;;;;;6.40;6.40;;;;;-143.57;100.00;65101.44;5097962;27;45529;-54
2022/06/15 07:16:55;;;;;;;;;9.25;7.00;;;;;-143.57;100.00;65101.44;5097640;27;46158;-47
2022/06/15 07:19:20;;;;;;;;;8.00;7.75;;;;;-143.57;100.00;65101.44;5096416;27;45405;-47
2022/06/15 07:21:46;;;;;;;;;8.50;5.75;;;;;-143.57;100.00;65101.44;5097549;27;45710;-44
2022/06/15 07:24:11;;;;;;;;;5.75;5.75;;;;;-143.57;100.00;65101.44;5097842;27;45358;-44
2022/06/15 07:26:42;;;;;;;;;7.00;6.00;;;;;-143.57;100.00;65101.44;5097723;27;45317;-44
2022/06/15 07:29:09;;;;;;;;;7.00;5.20;;;;;-143.57;100.00;65101.44;5097491;27;45387;-44
2022/06/15 07:31:39;;;;;;;;;6.00;5.00;;;;;-143.57;100.00;65101.44;5097845;27;45565;-45
2022/06/15 07:34:06;;;;;;;;;4.00;4.00;;;;;-143.57;100.00;65101.44;5098033;27;45457;-44
2022/06/15 07:36:33;;;;;;;;;12.00;5.20;;;;;-143.57;100.00;65101.44;5097367;27;46531;-44
2022/06/15 07:38:59;;;;;;;;;8.00;4.80;;;;;-143.57;100.00;65101.44;5097598;27;45188;-44
2022/06/15 07:41:25;;;;;;;;;7.00;5.50;;;;;-143.57;100.00;65101.44;5100284;27;45479;-52
2022/06/15 07:43:52;;;;;;;;;5.20;5.20;;;;;-143.57;100.00;65101.44;5101147;27;45540;-44
2022/06/15 07:46:18;;;;;;;;;7.40;5.80;;;;;-143.57;100.00;65101.44;5100990;27;45405;-46
2022/06/15 07:51:33;;;;;;;;;5.40;4.60;;;;;-143.57;100.00;65101.44;5100815;27;45318;-44
2022/06/15 07:54:01;;;;;;;;;7.80;7.00;;;;;-143.57;100.00;65101.44;5101205;27;45216;-47
2022/06/15 07:56:26;;;;;;;;;9.00;6.80;;;;;-143.57;100.00;65101.44;5100783;27;47670;-44
2022/06/15 07:58:52;;;;;;;;;5.75;4.50;;;;;-143.57;100.00;65101.44;5100621;27;45279;-46
2022/06/15 08:01:18;;;;;;;;;7.40;4.60;;;;;-143.57;100.00;65101.44;5100667;27;45330;-45
2022/06/15 08:03:44;;;;;;;;;8.00;5.75;;;;;-143.57;100.00;65101.44;5100838;27;45476;-43
2022/06/15 08:06:09;;;;;;;;;8.50;6.00;;;;;-143.57;100.00;65101.44;5100383;27;45968;-43
2022/06/15 08:08:35;;;;;;;;;6.40;6.40;;;;;-143.57;100.00;65101.44;5105288;27;45454;-44
2022/06/15 08:11:01;;;;;;;;;8.00;6.00;;;;;-143.57;100.00;65101.44;5097996;27;45501;-44
2022/06/15 08:13:26;;;;;;;;;7.75;7.75;;;;;-143.57;100.00;65101.44;5100912;27;45203;-44
2022/06/15 08:15:52;;;;;;;;;7.00;5.50;;;;;-143.57;100.00;65101.44;5099965;27;47391;-47
2022/06/15 08:18:23;;;;;;;;;8.00;5.60;;;;;-143.57;100.00;65101.44;5100307;27;45430;-46
2022/06/15 08:20:56;;;;;;;;;4.20;4.20;;;;;-143.57;100.00;65101.44;5100145;27;45398;-45
2022/06/15 08:23:25;;;;;;;;;5.20;5.20;;;;;-143.57;100.00;65101.44;5100255;27;45307;-48
2022/06/15 08:25:55;;;;;;;;;4.20;4.20;;;;;-143.57;100.00;65101.44;5100070;27;45501;-51
2022/06/15 08:28:26;;;;;;;;;9.40;6.00;;;;;-143.57;100.00;65101.44;5100083;27;45345;-48
2022/06/15 08:30:52;;;;;;;;;5.60;5.60;;;;;-143.57;100.00;65101.44;5100350;27;45348;-50
2022/06/15 08:33:19;;;;;;;;;7.80;5.40;;;;;-143.57;100.00;65101.44;5100448;27;45432;-45
2022/06/15 08:35:47;;;;;;;;;10.00;6.60;;;;;-143.57;100.00;65101.44;5100043;27;46013;-54
2022/06/15 08:38:15;;;;;;;;;4.60;4.60;;;;;-143.57;100.00;65101.44;5099874;27;45476;-44
2022/06/15 08:40:56;;;;;;;;;4.60;4.40;;;;;-143.57;100.00;65101.44;5100119;27;45278;-48
2022/06/15 08:43:52;;;;;;;;;8.40;5.80;;;;;-143.57;100.00;65101.44;5100351;27;45339;-51
2022/06/15 08:46:52;;;;;;;;;7.40;6.00;;;;;-143.57;100.00;65101.44;5099775;27;46373;-47
2022/06/15 08:49:36;;;;;;;;;5.40;4.60;;;;;-143.57;100.00;65101.44;5099565;27;45510;-53
2022/06/15 08:52:14;;;;;;;;;7.80;7.80;;;;;-143.57;100.00;65101.44;5099665;27;45456;-52
2022/06/15 08:54:52;;;;;;;;;4.60;4.20;;;;;-143.57;100.00;65101.44;5100225;27;45585;-55
2022/06/15 08:57:24;;;;;;;;;5.80;4.60;;;;;-143.57;100.00;65101.44;5099810;27;45438;-52
2022/06/15 09:00:19;;;;;;;;;5.60;4.20;;;;;-143.57;100.00;65101.44;5099499;27;45307;-52
2022/06/15 09:02:44;;;;;;;;;7.20;5.80;;;;;-143.57;100.00;65101.44;5096687;27;45474;-53
2022/06/15 09:05:43;;;;;;;;;8.75;5.75;;;;;-143.57;100.00;65101.44;5099926;27;45407;-52
2022/06/15 09:08:30;;;;;;;;;5.20;5.20;;;;;-143.57;100.00;65101.44;5099291;27;46115;-52
2022/06/15 09:11:21;;;;;;;;;5.00;5.00;;;;;-143.57;100.00;65101.44;5099512;27;45231;-55
2022/06/15 09:14:17;;;;;;;;;4.80;4.80;;;;;-143.57;100.00;65101.44;5099313;27;45339;-49
2022/06/15 09:16:48;;;;;;;;;3.60;3.60;;;;;-143.57;100.00;65101.44;5099703;27;45501;-54
2022/06/15 09:19:20;;;;;;;;;4.00;4.00;;;;;-143.57;100.00;65101.44;5098969;27;46356;-52
2022/06/15 09:21:57;;;;;;;;;7.60;6.40;;;;;-143.57;100.00;65101.44;5099237;27;45327;-54
2022/06/15 09:24:32;;;;;;;;;9.00;6.00;;;;;-143.57;100.00;65101.44;5099207;27;45231;-55
2022/06/15 09:27:04;;;;;;;;;6.00;5.60;;;;;-143.57;100.00;65101.44;5099627;27;45196;-48
2022/06/15 09:29:55;;;;;;;;;6.60;5.00;;;;;-143.57;100.00;65101.44;5099039;27;46080;-46
2022/06/15 09:32:30;;;;;;;;;6.40;5.20;;;;;-143.57;100.00;65101.44;5099262;27;45378;-48
2022/06/15 09:35:02;;;;;;;;;7.00;5.60;;;;;-143.57;100.00;65101.44;5099062;27;45255;-50
2022/06/15 09:37:33;;;;;;;;;5.20;5.00;;;;;-143.57;100.00;65101.44;5099216;27;45282;-52
2022/06/15 09:40:00;;;;;;;;;6.20;6.20;;;;;-143.57;100.00;65101.44;5098751;27;46698;-51
2022/06/15 09:42:37;;;;;;;;;4.40;4.40;;;;;-143.57;100.00;65101.44;5099088;27;45483;-53
2022/06/15 09:45:18;;;;;;;;;4.00;4.00;;;;;-143.57;100.00;65101.44;5099180;27;45245;-50
2022/06/15 09:48:22;;;;;;;;;6.60;6.60;;;;;-143.57;100.00;65101.44;5098852;27;45470;-49
2022/06/15 09:51:00;;;;;;;;;7.80;4.80;;;;;-143.57;100.00;65101.44;5097935;27;45424;-49
2022/06/15 09:53:35;;;;;;;;;6.00;4.00;;;;;-143.57;100.00;65101.44;5098558;27;45402;-53
2022/06/15 09:56:06;;;;;;;;;5.60;5.00;;;;;-143.57;100.00;65101.44;5098773;27;45377;-48
2022/06/15 09:58:40;;;;;;;;;4.00;4.00;;;;;-143.57;100.00;65101.44;5098541;27;45387;-47
2022/06/15 10:01:08;;;;;;;;;7.00;6.60;;;;;-143.57;100.00;65101.44;5098165;27;46053;-49
2022/06/15 10:03:40;;;;;;;;;7.20;5.40;;;;;-143.57;100.00;65101.44;5097920;27;45267;-53
2022/06/15 10:06:28;;;;;;;;;5.80;5.80;;;;;-143.57;100.00;65101.44;5098528;27;45337;-48
2022/06/15 10:08:55;;;;;;;;;5.40;5.40;;;;;-143.57;100.00;65101.44;5098597;27;45455;-55
2022/06/15 10:11:32;;;;;;;;;6.00;6.00;;;;;-143.57;100.00;65101.44;5098210;27;45999;-51
2022/06/15 10:14:20;;;;;;;;;4.80;4.80;;;;;-143.57;100.00;65101.44;5098311;27;45339;-47
2022/06/15 10:16:54;;;;;;;;;7.60;7.20;;;;;-143.57;100.00;65101.44;5098381;27;45366;-48
2022/06/15 10:19:22;;;;;;;;;5.40;5.40;;;;;-143.57;100.00;65101.44;5098268;27;45184;-47
2022/06/15 10:21:53;;;;;;;;;6.20;6.20;;;;;-143.57;100.00;65101.44;5097798;27;46126;-56
2022/06/15 10:24:24;;;;;;;;;6.80;6.20;;;;;-143.57;100.00;65101.44;5098010;27;45402;-48
2022/06/15 10:27:10;;;;;;;;;8.00;6.20;;;;;-143.57;100.00;65101.44;5097930;27;45483;-47
2022/06/15 10:29:35;;;;;;;;;5.40;5.40;;;;;-143.57;100.00;65101.44;5098270;27;45304;-47
2022/06/15 10:32:09;;;;;;;;;6.25;6.25;;;;;-143.57;100.00;65101.44;5097944;27;47266;-47
2022/06/15 10:34:35;;;;;;;;;4.80;4.60;;;;;-143.57;100.00;65101.44;5097951;27;45224;-48
2022/06/15 10:37:13;;;;;;;;;9.00;7.75;;;;;-143.57;100.00;65101.44;5098093;27;45234;-53
2022/06/15 10:39:42;;;;;;;;;10.00;8.60;;;;;-143.57;100.00;65101.44;5097976;27;45410;-49
2022/06/15 10:42:16;;;;;;;;;6.00;6.00;;;;;-143.57;100.00;65101.44;5097762;27;45493;-48
2022/06/15 10:45:09;;;;;;;;;7.60;5.80;;;;;-143.57;100.00;65101.44;5097803;27;45350;-51
2022/06/15 10:47:40;;;;;;;;;8.60;8.60;;;;;-143.57;100.00;65101.44;5096843;27;45309;-49
2022/06/15 10:50:17;;;;;;;;;5.60;5.60;;;;;-143.57;100.00;65101.44;5098052;27;45318;-48
2022/06/15 10:52:54;;;;;;;;;5.80;5.80;;;;;-143.57;100.00;65101.44;5097351;27;46396;-51
2022/06/15 11:04:08;;;;;;;;;7.60;7.60;;;;;-143.57;100.00;65101.44;5097486;27;45691;-47
2022/06/15 11:07:21;;;;;;;;;8.00;7.20;;;;;-143.57;100.00;65101.44;5097461;27;45311;-49
2022/06/15 11:09:55;;;;;;;;;10.00;7.20;;;;;-143.57;100.00;65101.44;5034590;28;45444;-51
2022/06/15 11:12:26;;;;;;;;;9.40;6.60;;;;;-143.57;100.00;65101.44;5034844;28;45378;-44
2022/06/15 11:15:14;;;;;;;;;11.60;9.00;;;;;-143.57;100.00;65101.44;5034821;28;46433;-50
2022/06/15 11:18:06;;;;;;;;;5.80;5.80;;;;;-143.57;100.00;65101.44;5037933;28;45314;-45
2022/06/15 11:20:43;;;;;;;;;6.60;6.60;;;;;-143.57;100.00;65101.44;5037679;28;45392;-48
2022/06/15 11:23:25;;;;;;;;;8.00;8.00;;;;;-143.57;100.00;65101.44;5038143;28;45495;-50
2022/06/15 11:29:04;;;;;;;;;13.60;10.60;;;;;-143.57;100.00;65101.44;5037903;28;45340;-55
2022/06/15 11:31:31;;;;;;;;;11.00;11.00;;;;;-143.57;100.00;65101.44;5038262;28;45307;-48
2022/06/15 11:34:06;;;;;;;;;10.40;6.60;;;;;-143.57;100.00;65101.44;5038230;28;45372;-45
2022/06/15 11:36:54;;;;;;;;;7.80;7.80;;;;;-143.57;100.00;65101.44;5037848;28;45608;-58
2022/06/15 11:39:25;;;;;;;;;7.20;7.20;;;;;-143.57;100.00;65101.44;5040220;28;45441;-51
2022/06/15 11:41:54;;;;;;;;;7.20;7.20;;;;;-143.57;100.00;65101.44;5080727;28;45301;-49